sensor_id;sensor_type;location;lat;lon;timestamp;P1;durP1;ratioP1;P2;durP2;ratioP2
73840;SDS011;62183;49.006;12.102;2022-09-20T00:01:55;2.00;;;1.90;;
73840;SDS011;62183;49.006;12.102;2022-09-20T00:04:21;2.90;;;2.20;;
73840;SDS011;62183;49.006;12.102;2022-09-20T00:06:46;2.10;;;1.90;;
73840;SDS011;62183;49.006;12.102;2022-09-20T00:09:11;2.13;;;2.00;;
73840;SDS011;62183;49.006;12.102;2022-09-20T00:11:36;4.30;;;2.20;;
73840;SDS011;62183;49.006;12.102;2022-09-20T00:14:02;2.00;;;1.87;;
73840;SDS011;62183;49.006;12.102;2022-09-20T00:16:29;4.07;;;2.13;;
73840;SDS011;62183;49.006;12.102;2022-09-20T00:18:55;2.75;;;2.10;;
73840;SDS011;62183;49.006;12.102;2022-09-20T00:21:22;2.17;;;1.98;;
73840;SDS011;62183;49.006;12.102;2022-09-20T00:23:47;2.22;;;1.90;;
73840;SDS011;62183;49.006;12.102;2022-09-20T00:26:13;2.33;;;2.10;;
73840;SDS011;62183;49.006;12.102;2022-09-20T00:28:38;3.80;;;1.88;;
73840;SDS011;62183;49.006;12.102;2022-09-20T00:31:03;2.65;;;2.22;;
73840;SDS011;62183;49.006;12.102;2022-09-20T00:33:29;2.07;;;1.97;;
73840;SDS011;62183;49.006;12.102;2022-09-20T00:35:54;4.40;;;2.00;;
73840;SDS011;62183;49.006;12.102;2022-09-20T00:38:19;2.20;;;2.00;;
73840;SDS011;62183;49.006;12.102;2022-09-20T00:40:44;2.90;;;2.07;;
73840;SDS011;62183;49.006;12.102;2022-09-20T00:43:13;2.80;;;2.13;;
73840;SDS011;62183;49.006;12.102;2022-09-20T00:45:39;2.08;;;1.88;;
73840;SDS011;62183;49.006;12.102;2022-09-20T00:48:19;2.42;;;1.70;;
73840;SDS011;62183;49.006;12.102;2022-09-20T00:50:47;4.03;;;2.00;;
73840;SDS011;62183;49.006;12.102;2022-09-20T00:53:24;3.08;;;1.98;;
73840;SDS011;62183;49.006;12.102;2022-09-20T00:56:02;2.55;;;2.00;;
73840;SDS011;62183;49.006;12.102;2022-09-20T00:58:28;2.55;;;1.80;;
73840;SDS011;62183;49.006;12.102;2022-09-20T01:00:55;2.05;;;1.80;;
73840;SDS011;62183;49.006;12.102;2022-09-20T01:03:21;2.03;;;1.80;;
73840;SDS011;62183;49.006;12.102;2022-09-20T01:05:51;2.22;;;2.03;;
73840;SDS011;62183;49.006;12.102;2022-09-20T01:08:16;2.10;;;1.90;;
73840;SDS011;62183;49.006;12.102;2022-09-20T01:10:42;2.47;;;1.88;;
73840;SDS011;62183;49.006;12.102;2022-09-20T01:13:07;2.17;;;2.00;;
73840;SDS011;62183;49.006;12.102;2022-09-20T01:15:33;3.72;;;1.90;;
73840;SDS011;62183;49.006;12.102;2022-09-20T01:17:59;5.13;;;1.90;;
73840;SDS011;62183;49.006;12.102;2022-09-20T01:20:25;2.55;;;1.70;;
73840;SDS011;62183;49.006;12.102;2022-09-20T01:26:04;3.53;;;2.00;;
73840;SDS011;62183;49.006;12.102;2022-09-20T01:28:02;1.73;;;1.60;;
73840;SDS011;62183;49.006;12.102;2022-09-20T01:30:30;1.80;;;1.70;;
73840;SDS011;62183;49.006;12.102;2022-09-20T01:33:08;2.58;;;1.70;;
73840;SDS011;62183;49.006;12.102;2022-09-20T01:35:35;2.53;;;2.08;;
73840;SDS011;62183;49.006;12.102;2022-09-20T01:40:38;5.57;;;1.80;;
73840;SDS011;62183;49.006;12.102;2022-09-20T01:43:10;3.17;;;1.90;;
73840;SDS011;62183;49.006;12.102;2022-09-20T01:45:39;2.42;;;1.95;;
73840;SDS011;62183;49.006;12.102;2022-09-20T01:48:22;3.92;;;2.00;;
73840;SDS011;62183;49.006;12.102;2022-09-20T01:50:54;4.53;;;1.80;;
73840;SDS011;62183;49.006;12.102;2022-09-20T02:01:29;1.80;;;1.70;;
73840;SDS011;62183;49.006;12.102;2022-09-20T02:09:20;4.45;;;2.10;;
73840;SDS011;62183;49.006;12.102;2022-09-20T02:11:52;3.47;;;2.17;;
73840;SDS011;62183;49.006;12.102;2022-09-20T02:14:27;3.05;;;1.90;;
73840;SDS011;62183;49.006;12.102;2022-09-20T02:17:01;2.47;;;2.10;;
73840;SDS011;62183;49.006;12.102;2022-09-20T02:19:33;5.43;;;1.88;;
73840;SDS011;62183;49.006;12.102;2022-09-20T02:22:14;1.80;;;1.70;;
73840;SDS011;62183;49.006;12.102;2022-09-20T02:24:45;5.47;;;2.20;;
73840;SDS011;62183;49.006;12.102;2022-09-20T02:27:17;2.80;;;1.90;;
73840;SDS011;62183;49.006;12.102;2022-09-20T02:37:14;2.80;;;1.90;;
73840;SDS011;62183;49.006;12.102;2022-09-20T02:40:31;3.15;;;2.10;;
73840;SDS011;62183;49.006;12.102;2022-09-20T02:42:36;4.80;;;2.00;;
73840;SDS011;62183;49.006;12.102;2022-09-20T02:45:06;2.83;;;2.00;;
73840;SDS011;62183;49.006;12.102;2022-09-20T02:52:44;2.10;;;1.90;;
73840;SDS011;62183;49.006;12.102;2022-09-20T03:00:26;3.37;;;3.00;;
73840;SDS011;62183;49.006;12.102;2022-09-20T03:03:10;3.15;;;2.30;;
73840;SDS011;62183;49.006;12.102;2022-09-20T03:20:35;5.18;;;2.28;;
73840;SDS011;62183;49.006;12.102;2022-09-20T03:33:31;3.28;;;2.10;;
73840;SDS011;62183;49.006;12.102;2022-09-20T03:46:00;3.17;;;2.67;;
73840;SDS011;62183;49.006;12.102;2022-09-20T03:51:31;4.90;;;2.22;;
73840;SDS011;62183;49.006;12.102;2022-09-20T03:54:02;3.65;;;2.42;;
73840;SDS011;62183;49.006;12.102;2022-09-20T04:07:20;4.85;;;2.33;;
73840;SDS011;62183;49.006;12.102;2022-09-20T04:09:54;2.65;;;2.17;;
73840;SDS011;62183;49.006;12.102;2022-09-20T04:12:32;7.20;;;2.63;;
73840;SDS011;62183;49.006;12.102;2022-09-20T04:22:50;2.60;;;2.40;;
73840;SDS011;62183;49.006;12.102;2022-09-20T04:25:18;3.63;;;2.60;;
73840;SDS011;62183;49.006;12.102;2022-09-20T04:27:46;3.15;;;2.65;;
73840;SDS011;62183;49.006;12.102;2022-09-20T04:30:17;5.93;;;2.60;;
73840;SDS011;62183;49.006;12.102;2022-09-20T04:32:45;4.28;;;2.50;;
73840;SDS011;62183;49.006;12.102;2022-09-20T04:37:40;4.28;;;2.70;;
73840;SDS011;62183;49.006;12.102;2022-09-20T04:40:13;6.03;;;2.75;;
73840;SDS011;62183;49.006;12.102;2022-09-20T04:45:13;5.45;;;2.53;;
73840;SDS011;62183;49.006;12.102;2022-09-20T05:02:38;5.50;;;2.80;;
73840;SDS011;62183;49.006;12.102;2022-09-20T05:10:20;5.03;;;2.70;;
73840;SDS011;62183;49.006;12.102;2022-09-20T05:23:22;4.50;;;2.90;;
73840;SDS011;62183;49.006;12.102;2022-09-20T05:25:57;4.70;;;2.83;;
73840;SDS011;62183;49.006;12.102;2022-09-20T05:28:29;3.88;;;2.70;;
73840;SDS011;62183;49.006;12.102;2022-09-20T05:30:58;4.90;;;3.00;;
73840;SDS011;62183;49.006;12.102;2022-09-20T05:36:28;4.32;;;2.90;;
73840;SDS011;62183;49.006;12.102;2022-09-20T05:38:57;3.55;;;2.97;;
73840;SDS011;62183;49.006;12.102;2022-09-20T05:46:57;4.78;;;3.97;;
73840;SDS011;62183;49.006;12.102;2022-09-20T05:54:23;5.90;;;3.85;;
73840;SDS011;62183;49.006;12.102;2022-09-20T05:59:23;4.75;;;3.50;;
73840;SDS011;62183;49.006;12.102;2022-09-20T06:07:22;3.53;;;3.03;;
73840;SDS011;62183;49.006;12.102;2022-09-20T06:09:58;4.10;;;3.15;;
73840;SDS011;62183;49.006;12.102;2022-09-20T06:14:55;6.53;;;3.70;;
73840;SDS011;62183;49.006;12.102;2022-09-20T06:17:42;7.72;;;4.10;;
73840;SDS011;62183;49.006;12.102;2022-09-20T06:20:19;6.82;;;3.40;;
73840;SDS011;62183;49.006;12.102;2022-09-20T06:22:49;5.55;;;3.83;;
73840;SDS011;62183;49.006;12.102;2022-09-20T06:25:22;4.13;;;3.70;;
73840;SDS011;62183;49.006;12.102;2022-09-20T06:30:14;5.05;;;3.85;;
73840;SDS011;62183;49.006;12.102;2022-09-20T06:35:21;5.20;;;3.45;;
73840;SDS011;62183;49.006;12.102;2022-09-20T06:37:53;7.18;;;3.70;;
73840;SDS011;62183;49.006;12.102;2022-09-20T06:42:45;5.82;;;3.22;;
73840;SDS011;62183;49.006;12.102;2022-09-20T06:45:10;7.47;;;3.60;;
73840;SDS011;62183;49.006;12.102;2022-09-20T06:47:36;4.93;;;3.27;;
73840;SDS011;62183;49.006;12.102;2022-09-20T06:50:01;6.70;;;3.47;;
73840;SDS011;62183;49.006;12.102;2022-09-20T06:52:26;5.65;;;3.40;;
73840;SDS011;62183;49.006;12.102;2022-09-20T06:54:52;5.20;;;3.47;;
73840;SDS011;62183;49.006;12.102;2022-09-20T06:57:20;5.85;;;4.03;;
73840;SDS011;62183;49.006;12.102;2022-09-20T06:59:46;8.40;;;3.67;;
73840;SDS011;62183;49.006;12.102;2022-09-20T07:02:11;6.00;;;3.50;;
73840;SDS011;62183;49.006;12.102;2022-09-20T07:04:36;4.80;;;3.60;;
73840;SDS011;62183;49.006;12.102;2022-09-20T07:07:05;3.80;;;3.50;;
73840;SDS011;62183;49.006;12.102;2022-09-20T07:09:31;5.93;;;3.92;;
73840;SDS011;62183;49.006;12.102;2022-09-20T07:11:56;6.45;;;3.80;;
73840;SDS011;62183;49.006;12.102;2022-09-20T07:14:21;4.40;;;4.00;;
73840;SDS011;62183;49.006;12.102;2022-09-20T07:16:47;5.68;;;4.22;;
73840;SDS011;62183;49.006;12.102;2022-09-20T07:19:12;4.20;;;3.75;;
73840;SDS011;62183;49.006;12.102;2022-09-20T07:21:37;5.07;;;3.80;;
73840;SDS011;62183;49.006;12.102;2022-09-20T07:24:03;4.40;;;3.77;;
73840;SDS011;62183;49.006;12.102;2022-09-20T07:26:28;4.35;;;3.50;;
73840;SDS011;62183;49.006;12.102;2022-09-20T07:28:54;3.78;;;3.47;;
73840;SDS011;62183;49.006;12.102;2022-09-20T07:31:20;7.32;;;3.70;;
73840;SDS011;62183;49.006;12.102;2022-09-20T07:33:45;5.10;;;3.80;;
73840;SDS011;62183;49.006;12.102;2022-09-20T07:36:11;6.43;;;3.78;;
73840;SDS011;62183;49.006;12.102;2022-09-20T07:38:36;6.20;;;3.33;;
73840;SDS011;62183;49.006;12.102;2022-09-20T07:41:01;4.05;;;3.50;;
73840;SDS011;62183;49.006;12.102;2022-09-20T07:43:27;4.80;;;3.45;;
73840;SDS011;62183;49.006;12.102;2022-09-20T07:45:52;6.07;;;3.28;;
73840;SDS011;62183;49.006;12.102;2022-09-20T07:48:18;4.22;;;3.20;;
73840;SDS011;62183;49.006;12.102;2022-09-20T07:50:49;3.15;;;2.85;;
73840;SDS011;62183;49.006;12.102;2022-09-20T07:53:14;3.28;;;2.97;;
73840;SDS011;62183;49.006;12.102;2022-09-20T07:55:39;3.50;;;2.93;;
73840;SDS011;62183;49.006;12.102;2022-09-20T07:58:04;4.50;;;3.03;;
73840;SDS011;62183;49.006;12.102;2022-09-20T08:00:29;4.80;;;3.30;;
73840;SDS011;62183;49.006;12.102;2022-09-20T08:02:58;3.93;;;3.20;;
73840;SDS011;62183;49.006;12.102;2022-09-20T08:05:23;3.63;;;2.97;;
73840;SDS011;62183;49.006;12.102;2022-09-20T08:07:48;4.93;;;3.13;;
73840;SDS011;62183;49.006;12.102;2022-09-20T08:10:13;4.00;;;3.10;;
73840;SDS011;62183;49.006;12.102;2022-09-20T08:12:38;3.17;;;2.87;;
73840;SDS011;62183;49.006;12.102;2022-09-20T08:15:04;3.43;;;2.80;;
73840;SDS011;62183;49.006;12.102;2022-09-20T08:17:29;7.32;;;3.30;;
73840;SDS011;62183;49.006;12.102;2022-09-20T08:19:54;6.70;;;2.97;;
73840;SDS011;62183;49.006;12.102;2022-09-20T08:22:19;5.10;;;3.60;;
73840;SDS011;62183;49.006;12.102;2022-09-20T08:24:45;4.07;;;2.93;;
73840;SDS011;62183;49.006;12.102;2022-09-20T08:27:10;5.20;;;3.23;;
73840;SDS011;62183;49.006;12.102;2022-09-20T08:29:35;4.13;;;3.60;;
73840;SDS011;62183;49.006;12.102;2022-09-20T08:32:00;5.23;;;3.40;;
73840;SDS011;62183;49.006;12.102;2022-09-20T08:34:25;5.45;;;3.20;;
73840;SDS011;62183;49.006;12.102;2022-09-20T08:36:51;6.87;;;3.33;;
73840;SDS011;62183;49.006;12.102;2022-09-20T08:39:16;6.27;;;3.33;;
73840;SDS011;62183;49.006;12.102;2022-09-20T08:41:45;5.32;;;3.53;;
73840;SDS011;62183;49.006;12.102;2022-09-20T08:47:06;6.63;;;3.80;;
73840;SDS011;62183;49.006;12.102;2022-09-20T08:49:28;3.75;;;3.20;;
73840;SDS011;62183;49.006;12.102;2022-09-20T08:51:54;3.50;;;3.20;;
73840;SDS011;62183;49.006;12.102;2022-09-20T08:54:19;5.55;;;3.40;;
73840;SDS011;62183;49.006;12.102;2022-09-20T08:56:45;5.05;;;3.40;;
73840;SDS011;62183;49.006;12.102;2022-09-20T08:59:17;3.90;;;3.60;;
73840;SDS011;62183;49.006;12.102;2022-09-20T09:01:42;4.22;;;3.60;;
73840;SDS011;62183;49.006;12.102;2022-09-20T09:04:18;5.67;;;3.50;;
73840;SDS011;62183;49.006;12.102;2022-09-20T09:06:44;3.70;;;3.25;;
73840;SDS011;62183;49.006;12.102;2022-09-20T09:09:16;4.25;;;3.15;;
73840;SDS011;62183;49.006;12.102;2022-09-20T09:14:11;7.50;;;3.30;;
73840;SDS011;62183;49.006;12.102;2022-09-20T09:16:37;5.75;;;3.40;;
73840;SDS011;62183;49.006;12.102;2022-09-20T09:21:46;4.82;;;3.35;;
73840;SDS011;62183;49.006;12.102;2022-09-20T09:24:15;3.67;;;3.37;;
73840;SDS011;62183;49.006;12.102;2022-09-20T09:26:41;3.92;;;3.63;;
73840;SDS011;62183;49.006;12.102;2022-09-20T09:29:07;6.65;;;3.20;;
73840;SDS011;62183;49.006;12.102;2022-09-20T09:31:33;3.40;;;3.10;;
73840;SDS011;62183;49.006;12.102;2022-09-20T09:33:58;4.70;;;2.97;;
73840;SDS011;62183;49.006;12.102;2022-09-20T09:36:24;5.40;;;3.00;;
73840;SDS011;62183;49.006;12.102;2022-09-20T09:38:50;3.42;;;3.17;;
73840;SDS011;62183;49.006;12.102;2022-09-20T09:43:41;4.50;;;3.40;;
73840;SDS011;62183;49.006;12.102;2022-09-20T09:46:22;3.73;;;3.43;;
73840;SDS011;62183;49.006;12.102;2022-09-20T09:51:28;5.95;;;3.70;;
73840;SDS011;62183;49.006;12.102;2022-09-20T09:53:53;4.10;;;3.70;;
73840;SDS011;62183;49.006;12.102;2022-09-20T09:58:54;3.78;;;3.40;;
73840;SDS011;62183;49.006;12.102;2022-09-20T10:01:47;4.45;;;3.55;;
73840;SDS011;62183;49.006;12.102;2022-09-20T10:06:35;4.30;;;4.00;;
73840;SDS011;62183;49.006;12.102;2022-09-20T10:19:23;3.70;;;3.40;;
73840;SDS011;62183;49.006;12.102;2022-09-20T10:24:39;3.63;;;3.40;;
73840;SDS011;62183;49.006;12.102;2022-09-20T10:27:11;3.78;;;3.47;;
73840;SDS011;62183;49.006;12.102;2022-09-20T10:29:49;4.05;;;3.70;;
73840;SDS011;62183;49.006;12.102;2022-09-20T10:32:26;4.93;;;3.55;;
73840;SDS011;62183;49.006;12.102;2022-09-20T10:37:21;4.27;;;3.53;;
73840;SDS011;62183;49.006;12.102;2022-09-20T10:40:15;3.90;;;3.60;;
73840;SDS011;62183;49.006;12.102;2022-09-20T10:42:45;3.58;;;3.30;;
73840;SDS011;62183;49.006;12.102;2022-09-20T10:45:13;4.97;;;3.33;;
73840;SDS011;62183;49.006;12.102;2022-09-20T10:47:45;4.68;;;3.25;;
73840;SDS011;62183;49.006;12.102;2022-09-20T10:55:29;3.53;;;3.10;;
73840;SDS011;62183;49.006;12.102;2022-09-20T11:00:53;7.28;;;3.50;;
73840;SDS011;62183;49.006;12.102;2022-09-20T11:05:45;3.60;;;3.30;;
73840;SDS011;62183;49.006;12.102;2022-09-20T11:08:16;4.65;;;3.40;;
73840;SDS011;62183;49.006;12.102;2022-09-20T11:10:44;4.35;;;3.15;;
73840;SDS011;62183;49.006;12.102;2022-09-20T11:18:29;3.55;;;3.25;;
73840;SDS011;62183;49.006;12.102;2022-09-20T11:23:48;3.63;;;3.30;;
73840;SDS011;62183;49.006;12.102;2022-09-20T11:26:17;4.80;;;3.40;;
73840;SDS011;62183;49.006;12.102;2022-09-20T11:28:44;4.80;;;3.35;;
73840;SDS011;62183;49.006;12.102;2022-09-20T11:31:18;4.43;;;3.60;;
73840;SDS011;62183;49.006;12.102;2022-09-20T11:33:47;3.72;;;3.28;;
73840;SDS011;62183;49.006;12.102;2022-09-20T11:36:16;3.88;;;3.47;;
73840;SDS011;62183;49.006;12.102;2022-09-20T11:38:53;3.53;;;3.17;;
73840;SDS011;62183;49.006;12.102;2022-09-20T11:43:46;5.30;;;3.70;;
73840;SDS011;62183;49.006;12.102;2022-09-20T11:46:12;5.07;;;3.65;;
73840;SDS011;62183;49.006;12.102;2022-09-20T11:48:43;3.78;;;3.50;;
73840;SDS011;62183;49.006;12.102;2022-09-20T11:56:11;2.83;;;2.70;;
73840;SDS011;62183;49.006;12.102;2022-09-20T11:58:47;2.40;;;2.30;;
73840;SDS011;62183;49.006;12.102;2022-09-20T12:01:13;2.33;;;2.22;;
73840;SDS011;62183;49.006;12.102;2022-09-20T12:03:39;3.67;;;2.40;;
73840;SDS011;62183;49.006;12.102;2022-09-20T12:06:07;2.30;;;2.20;;
73840;SDS011;62183;49.006;12.102;2022-09-20T12:08:34;2.60;;;2.40;;
73840;SDS011;62183;49.006;12.102;2022-09-20T12:13:28;2.35;;;2.15;;
73840;SDS011;62183;49.006;12.102;2022-09-20T12:15:58;2.58;;;2.42;;
73840;SDS011;62183;49.006;12.102;2022-09-20T12:18:46;2.60;;;2.40;;
73840;SDS011;62183;49.006;12.102;2022-09-20T12:21:11;2.47;;;2.38;;
73840;SDS011;62183;49.006;12.102;2022-09-20T12:26:03;3.30;;;2.60;;
73840;SDS011;62183;49.006;12.102;2022-09-20T12:28:47;2.92;;;2.53;;
73840;SDS011;62183;49.006;12.102;2022-09-20T12:36:32;2.88;;;2.65;;
73840;SDS011;62183;49.006;12.102;2022-09-20T12:39:02;3.33;;;3.03;;
73840;SDS011;62183;49.006;12.102;2022-09-20T12:41:42;2.90;;;2.70;;
73840;SDS011;62183;49.006;12.102;2022-09-20T12:54:54;3.10;;;2.90;;
73840;SDS011;62183;49.006;12.102;2022-09-20T12:57:26;3.30;;;3.10;;
73840;SDS011;62183;49.006;12.102;2022-09-20T12:59:56;5.55;;;3.38;;
73840;SDS011;62183;49.006;12.102;2022-09-20T13:07:51;3.72;;;3.45;;
73840;SDS011;62183;49.006;12.102;2022-09-20T13:10:25;4.03;;;3.15;;
73840;SDS011;62183;49.006;12.102;2022-09-20T13:12:52;3.30;;;3.10;;
73840;SDS011;62183;49.006;12.102;2022-09-20T13:15:19;3.20;;;2.90;;
73840;SDS011;62183;49.006;12.102;2022-09-20T13:17:46;3.30;;;2.60;;
73840;SDS011;62183;49.006;12.102;2022-09-20T13:20:16;2.80;;;2.60;;
73840;SDS011;62183;49.006;12.102;2022-09-20T13:22:43;2.55;;;2.42;;
73840;SDS011;62183;49.006;12.102;2022-09-20T13:25:09;2.50;;;2.30;;
73840;SDS011;62183;49.006;12.102;2022-09-20T13:27:38;2.58;;;2.40;;
73840;SDS011;62183;49.006;12.102;2022-09-20T13:30:24;3.33;;;3.00;;
73840;SDS011;62183;49.006;12.102;2022-09-20T13:32:49;4.70;;;2.45;;
73840;SDS011;62183;49.006;12.102;2022-09-20T13:35:16;3.15;;;2.50;;
73840;SDS011;62183;49.006;12.102;2022-09-20T13:40:37;2.58;;;2.47;;
73840;SDS011;62183;49.006;12.102;2022-09-20T13:43:01;6.18;;;2.60;;
73840;SDS011;62183;49.006;12.102;2022-09-20T13:45:27;3.25;;;2.35;;
73840;SDS011;62183;49.006;12.102;2022-09-20T13:47:53;2.40;;;2.20;;
73840;SDS011;62183;49.006;12.102;2022-09-20T13:50:22;2.20;;;2.05;;
73840;SDS011;62183;49.006;12.102;2022-09-20T13:55:26;2.38;;;2.28;;
73840;SDS011;62183;49.006;12.102;2022-09-20T13:57:53;2.30;;;2.10;;
73840;SDS011;62183;49.006;12.102;2022-09-20T14:00:18;2.88;;;2.08;;
73840;SDS011;62183;49.006;12.102;2022-09-20T14:02:44;2.50;;;2.40;;
73840;SDS011;62183;49.006;12.102;2022-09-20T14:05:13;2.50;;;2.30;;
73840;SDS011;62183;49.006;12.102;2022-09-20T14:07:41;2.35;;;2.20;;
73840;SDS011;62183;49.006;12.102;2022-09-20T14:10:24;3.03;;;2.38;;
73840;SDS011;62183;49.006;12.102;2022-09-20T14:15:15;2.97;;;2.08;;
73840;SDS011;62183;49.006;12.102;2022-09-20T14:17:40;2.42;;;2.33;;
73840;SDS011;62183;49.006;12.102;2022-09-20T14:20:06;2.20;;;2.00;;
73840;SDS011;62183;49.006;12.102;2022-09-20T14:22:31;2.40;;;2.20;;
73840;SDS011;62183;49.006;12.102;2022-09-20T14:24:57;2.57;;;2.37;;
73840;SDS011;62183;49.006;12.102;2022-09-20T14:27:23;2.40;;;2.20;;
73840;SDS011;62183;49.006;12.102;2022-09-20T14:29:49;2.60;;;2.40;;
73840;SDS011;62183;49.006;12.102;2022-09-20T14:34:43;2.60;;;2.40;;
73840;SDS011;62183;49.006;12.102;2022-09-20T14:37:13;2.40;;;2.20;;
73840;SDS011;62183;49.006;12.102;2022-09-20T14:39:48;2.60;;;2.40;;
73840;SDS011;62183;49.006;12.102;2022-09-20T14:42:17;2.50;;;2.40;;
73840;SDS011;62183;49.006;12.102;2022-09-20T14:44:43;3.92;;;2.70;;
73840;SDS011;62183;49.006;12.102;2022-09-20T14:47:14;2.60;;;2.40;;
73840;SDS011;62183;49.006;12.102;2022-09-20T14:49:42;2.63;;;2.43;;
73840;SDS011;62183;49.006;12.102;2022-09-20T14:57:46;2.80;;;2.60;;
73840;SDS011;62183;49.006;12.102;2022-09-20T15:00:12;3.10;;;2.80;;
73840;SDS011;62183;49.006;12.102;2022-09-20T15:02:37;2.58;;;2.47;;
73840;SDS011;62183;49.006;12.102;2022-09-20T15:05:14;2.50;;;2.30;;
73840;SDS011;62183;49.006;12.102;2022-09-20T15:07:40;2.58;;;2.40;;
73840;SDS011;62183;49.006;12.102;2022-09-20T15:10:05;2.67;;;2.23;;
73840;SDS011;62183;49.006;12.102;2022-09-20T15:12:30;2.58;;;2.28;;
73840;SDS011;62183;49.006;12.102;2022-09-20T15:14:56;2.80;;;2.50;;
73840;SDS011;62183;49.006;12.102;2022-09-20T15:17:21;3.30;;;3.00;;
73840;SDS011;62183;49.006;12.102;2022-09-20T15:19:46;2.63;;;2.53;;
73840;SDS011;62183;49.006;12.102;2022-09-20T15:22:12;2.97;;;2.78;;
73840;SDS011;62183;49.006;12.102;2022-09-20T15:24:37;2.85;;;2.67;;
73840;SDS011;62183;49.006;12.102;2022-09-20T15:27:03;3.63;;;2.90;;
73840;SDS011;62183;49.006;12.102;2022-09-20T15:29:28;2.60;;;2.40;;
73840;SDS011;62183;49.006;12.102;2022-09-20T15:31:53;2.73;;;2.53;;
73840;SDS011;62183;49.006;12.102;2022-09-20T15:34:18;2.83;;;2.60;;
73840;SDS011;62183;49.006;12.102;2022-09-20T15:36:44;2.83;;;2.63;;
73840;SDS011;62183;49.006;12.102;2022-09-20T15:39:09;2.90;;;2.70;;
73840;SDS011;62183;49.006;12.102;2022-09-20T15:41:34;2.67;;;2.57;;
73840;SDS011;62183;49.006;12.102;2022-09-20T15:43:59;2.97;;;2.77;;
73840;SDS011;62183;49.006;12.102;2022-09-20T15:46:25;2.58;;;2.47;;
73840;SDS011;62183;49.006;12.102;2022-09-20T15:48:50;2.90;;;2.80;;
73840;SDS011;62183;49.006;12.102;2022-09-20T15:51:15;3.00;;;2.80;;
73840;SDS011;62183;49.006;12.102;2022-09-20T15:53:41;2.80;;;2.60;;
73840;SDS011;62183;49.006;12.102;2022-09-20T15:58:38;2.85;;;2.70;;
73840;SDS011;62183;49.006;12.102;2022-09-20T16:01:08;2.80;;;2.60;;
73840;SDS011;62183;49.006;12.102;2022-09-20T16:03:34;2.70;;;2.50;;
73840;SDS011;62183;49.006;12.102;2022-09-20T16:06:00;2.75;;;2.50;;
73840;SDS011;62183;49.006;12.102;2022-09-20T16:08:26;2.47;;;2.28;;
73840;SDS011;62183;49.006;12.102;2022-09-20T16:10:55;2.53;;;2.33;;
73840;SDS011;62183;49.006;12.102;2022-09-20T16:13:20;2.35;;;2.20;;
73840;SDS011;62183;49.006;12.102;2022-09-20T16:15:51;2.60;;;2.50;;
73840;SDS011;62183;49.006;12.102;2022-09-20T16:18:16;4.50;;;2.50;;
73840;SDS011;62183;49.006;12.102;2022-09-20T16:20:41;2.70;;;2.33;;
73840;SDS011;62183;49.006;12.102;2022-09-20T16:23:07;2.33;;;2.00;;
73840;SDS011;62183;49.006;12.102;2022-09-20T16:25:32;2.80;;;2.60;;
73840;SDS011;62183;49.006;12.102;2022-09-20T16:27:57;2.60;;;2.40;;
73840;SDS011;62183;49.006;12.102;2022-09-20T16:30:22;2.87;;;2.63;;
73840;SDS011;62183;49.006;12.102;2022-09-20T16:32:47;3.33;;;3.13;;
73840;SDS011;62183;49.006;12.102;2022-09-20T16:35:13;2.50;;;2.30;;
73840;SDS011;62183;49.006;12.102;2022-09-20T16:37:38;3.10;;;2.33;;
73840;SDS011;62183;49.006;12.102;2022-09-20T16:40:03;2.57;;;2.13;;
73840;SDS011;62183;49.006;12.102;2022-09-20T16:42:28;2.47;;;2.20;;
73840;SDS011;62183;49.006;12.102;2022-09-20T16:44:53;2.40;;;2.30;;
73840;SDS011;62183;49.006;12.102;2022-09-20T16:47:19;3.33;;;3.03;;
73840;SDS011;62183;49.006;12.102;2022-09-20T16:49:44;3.20;;;2.80;;
73840;SDS011;62183;49.006;12.102;2022-09-20T16:52:09;3.40;;;3.10;;
73840;SDS011;62183;49.006;12.102;2022-09-20T16:54:34;4.53;;;3.33;;
73840;SDS011;62183;49.006;12.102;2022-09-20T16:57:00;4.40;;;3.72;;
73840;SDS011;62183;49.006;12.102;2022-09-20T16:59:25;5.88;;;4.10;;
73840;SDS011;62183;49.006;12.102;2022-09-20T17:01:50;3.70;;;3.40;;
73840;SDS011;62183;49.006;12.102;2022-09-20T17:04:16;3.23;;;2.93;;
73840;SDS011;62183;49.006;12.102;2022-09-20T17:06:41;2.92;;;2.72;;
73840;SDS011;62183;49.006;12.102;2022-09-20T17:09:06;2.73;;;2.53;;
73840;SDS011;62183;49.006;12.102;2022-09-20T17:11:36;3.20;;;2.43;;
73840;SDS011;62183;49.006;12.102;2022-09-20T17:14:01;3.17;;;2.60;;
73840;SDS011;62183;49.006;12.102;2022-09-20T17:16:30;3.05;;;2.28;;
73840;SDS011;62183;49.006;12.102;2022-09-20T17:18:57;3.50;;;2.88;;
73840;SDS011;62183;49.006;12.102;2022-09-20T17:21:22;4.38;;;3.22;;
73840;SDS011;62183;49.006;12.102;2022-09-20T17:23:49;4.35;;;3.00;;
73840;SDS011;62183;49.006;12.102;2022-09-20T17:26:15;4.72;;;3.33;;
73840;SDS011;62183;49.006;12.102;2022-09-20T17:28:42;3.60;;;3.30;;
73840;SDS011;62183;49.006;12.102;2022-09-20T17:31:08;3.88;;;3.28;;
73840;SDS011;62183;49.006;12.102;2022-09-20T17:33:34;3.20;;;2.90;;
73840;SDS011;62183;49.006;12.102;2022-09-20T17:36:00;3.40;;;2.90;;
73840;SDS011;62183;49.006;12.102;2022-09-20T17:38:26;6.40;;;3.80;;
73840;SDS011;62183;49.006;12.102;2022-09-20T17:43:29;2.85;;;2.63;;
73840;SDS011;62183;49.006;12.102;2022-09-20T17:45:54;4.45;;;4.05;;
73840;SDS011;62183;49.006;12.102;2022-09-20T17:48:19;4.30;;;3.60;;
73840;SDS011;62183;49.006;12.102;2022-09-20T17:50:54;7.33;;;4.00;;
73840;SDS011;62183;49.006;12.102;2022-09-20T17:53:20;6.05;;;3.33;;
73840;SDS011;62183;49.006;12.102;2022-09-20T17:55:54;4.97;;;3.40;;
73840;SDS011;62183;49.006;12.102;2022-09-20T17:58:20;4.72;;;3.13;;
73840;SDS011;62183;49.006;12.102;2022-09-20T18:00:45;5.28;;;3.58;;
73840;SDS011;62183;49.006;12.102;2022-09-20T18:03:10;5.27;;;4.47;;
73840;SDS011;62183;49.006;12.102;2022-09-20T18:05:35;6.70;;;4.27;;
73840;SDS011;62183;49.006;12.102;2022-09-20T18:08:01;3.87;;;3.50;;
73840;SDS011;62183;49.006;12.102;2022-09-20T18:10:26;3.58;;;3.15;;
73840;SDS011;62183;49.006;12.102;2022-09-20T18:12:51;5.83;;;3.40;;
73840;SDS011;62183;49.006;12.102;2022-09-20T18:15:16;4.23;;;2.87;;
73840;SDS011;62183;49.006;12.102;2022-09-20T18:17:41;2.60;;;2.40;;
73840;SDS011;62183;49.006;12.102;2022-09-20T18:20:07;4.90;;;2.40;;
73840;SDS011;62183;49.006;12.102;2022-09-20T18:22:32;5.50;;;2.38;;
73840;SDS011;62183;49.006;12.102;2022-09-20T18:24:57;2.90;;;2.60;;
73840;SDS011;62183;49.006;12.102;2022-09-20T18:27:22;5.27;;;3.30;;
73840;SDS011;62183;49.006;12.102;2022-09-20T18:29:48;3.80;;;3.23;;
73840;SDS011;62183;49.006;12.102;2022-09-20T18:32:13;6.23;;;2.90;;
73840;SDS011;62183;49.006;12.102;2022-09-20T18:34:38;3.00;;;2.70;;
73840;SDS011;62183;49.006;12.102;2022-09-20T18:37:03;3.47;;;3.10;;
73840;SDS011;62183;49.006;12.102;2022-09-20T18:39:29;4.30;;;3.03;;
73840;SDS011;62183;49.006;12.102;2022-09-20T18:41:55;4.43;;;2.83;;
73840;SDS011;62183;49.006;12.102;2022-09-20T18:44:20;5.23;;;3.37;;
73840;SDS011;62183;49.006;12.102;2022-09-20T18:46:46;4.13;;;3.72;;
73840;SDS011;62183;49.006;12.102;2022-09-20T18:49:11;5.97;;;3.70;;
73840;SDS011;62183;49.006;12.102;2022-09-20T18:51:37;4.57;;;3.63;;
73840;SDS011;62183;49.006;12.102;2022-09-20T18:54:02;3.83;;;3.50;;
73840;SDS011;62183;49.006;12.102;2022-09-20T18:56:31;5.93;;;4.10;;
73840;SDS011;62183;49.006;12.102;2022-09-20T18:59:07;3.45;;;3.15;;
73840;SDS011;62183;49.006;12.102;2022-09-20T19:01:52;4.28;;;3.35;;
73840;SDS011;62183;49.006;12.102;2022-09-20T19:18:05;4.50;;;2.90;;
73840;SDS011;62183;49.006;12.102;2022-09-20T19:25:29;3.83;;;2.75;;